sensor_id;sensor_type;location;lat;lon;timestamp;P1;P2;P0
23240;PMS7003;11789;53.482;9.862;2024-02-04T00:01:39;3.75;2.00;1.00
23240;PMS7003;11789;53.482;9.862;2024-02-04T00:04:04;2.00;1.00;0.00
23240;PMS7003;11789;53.482;9.862;2024-02-04T00:06:30;4.00;3.00;1.00
23240;PMS7003;11789;53.482;9.862;2024-02-04T00:08:55;1.25;1.25;1.00
23240;PMS7003;11789;53.482;9.862;2024-02-04T00:11:21;2.00;1.00;0.50
23240;PMS7003;11789;53.482;9.862;2024-02-04T00:13:46;4.50;1.00;1.00
23240;PMS7003;11789;53.482;9.862;2024-02-04T00:16:12;2.25;2.25;0.75
23240;PMS7003;11789;53.482;9.862;2024-02-04T00:18:37;3.50;1.50;1.00
23240;PMS7003;11789;53.482;9.862;2024-02-04T00:21:02;3.25;2.00;1.00
23240;PMS7003;11789;53.482;9.862;2024-02-04T00:23:28;4.50;2.00;1.00
23240;PMS7003;11789;53.482;9.862;2024-02-04T00:25:54;5.25;2.00;1.00
23240;PMS7003;11789;53.482;9.862;2024-02-04T00:28:20;1.75;1.75;1.00
23240;PMS7003;11789;53.482;9.862;2024-02-04T00:30:46;2.75;1.00;1.00
23240;PMS7003;11789;53.482;9.862;2024-02-04T00:33:11;2.75;1.00;0.75
23240;PMS7003;11789;53.482;9.862;2024-02-04T00:35:37;1.00;1.00;1.00
23240;PMS7003;11789;53.482;9.862;2024-02-04T00:38:02;6.25;3.75;2.00
23240;PMS7003;11789;53.482;9.862;2024-02-04T00:40:28;6.00;1.75;1.00
23240;PMS7003;11789;53.482;9.862;2024-02-04T00:42:53;1.75;1.75;1.25
23240;PMS7003;11789;53.482;9.862;2024-02-04T00:45:19;2.25;1.00;0.00
23240;PMS7003;11789;53.482;9.862;2024-02-04T00:47:44;4.00;1.50;1.00
23240;PMS7003;11789;53.482;9.862;2024-02-04T00:50:10;2.00;1.00;0.25
23240;PMS7003;11789;53.482;9.862;2024-02-04T00:52:35;2.25;2.00;1.00
23240;PMS7003;11789;53.482;9.862;2024-02-04T00:55:01;4.25;3.00;1.00
23240;PMS7003;11789;53.482;9.862;2024-02-04T00:57:26;1.50;1.50;0.25
23240;PMS7003;11789;53.482;9.862;2024-02-04T00:59:52;3.00;1.00;1.00
23240;PMS7003;11789;53.482;9.862;2024-02-04T01:02:18;2.25;0.75;0.25
23240;PMS7003;11789;53.482;9.862;2024-02-04T01:04:43;4.00;2.00;1.00
23240;PMS7003;11789;53.482;9.862;2024-02-04T01:07:09;8.25;1.75;1.00
23240;PMS7003;11789;53.482;9.862;2024-02-04T01:09:34;3.50;1.75;1.00
23240;PMS7003;11789;53.482;9.862;2024-02-04T01:11:59;5.75;1.50;1.00
23240;PMS7003;11789;53.482;9.862;2024-02-04T01:14:25;1.00;1.00;1.00
23240;PMS7003;11789;53.482;9.862;2024-02-04T01:16:50;4.00;1.00;1.00
23240;PMS7003;11789;53.482;9.862;2024-02-04T01:19:16;4.75;2.00;1.00
23240;PMS7003;11789;53.482;9.862;2024-02-04T01:21:41;3.75;1.50;0.75
23240;PMS7003;11789;53.482;9.862;2024-02-04T01:24:07;4.00;1.00;0.00
23240;PMS7003;11789;53.482;9.862;2024-02-04T01:26:32;3.00;1.75;0.00
23240;PMS7003;11789;53.482;9.862;2024-02-04T01:28:58;3.00;2.00;1.00
23240;PMS7003;11789;53.482;9.862;2024-02-04T01:31:23;8.25;2.00;1.00
23240;PMS7003;11789;53.482;9.862;2024-02-04T01:33:49;3.50;2.00;1.00
23240;PMS7003;11789;53.482;9.862;2024-02-04T01:36:14;3.00;1.00;0.25
23240;PMS7003;11789;53.482;9.862;2024-02-04T01:38:39;1.50;1.50;1.00
23240;PMS7003;11789;53.482;9.862;2024-02-04T01:41:05;5.50;1.75;1.00
23240;PMS7003;11789;53.482;9.862;2024-02-04T01:43:30;2.00;1.50;1.00
23240;PMS7003;11789;53.482;9.862;2024-02-04T01:45:56;1.25;1.25;0.25
23240;PMS7003;11789;53.482;9.862;2024-02-04T01:48:22;5.25;1.00;1.00
23240;PMS7003;11789;53.482;9.862;2024-02-04T01:50:48;0.50;0.25;0.00
23240;PMS7003;11789;53.482;9.862;2024-02-04T01:53:17;3.75;1.00;0.75
23240;PMS7003;11789;53.482;9.862;2024-02-04T01:55:44;3.25;2.00;1.25
23240;PMS7003;11789;53.482;9.862;2024-02-04T01:58:09;1.00;1.00;1.00
23240;PMS7003;11789;53.482;9.862;2024-02-04T02:00:35;2.00;2.00;1.00
23240;PMS7003;11789;53.482;9.862;2024-02-04T02:03:01;5.25;0.50;0.50
23240;PMS7003;11789;53.482;9.862;2024-02-04T02:05:30;3.00;3.00;1.00
23240;PMS7003;11789;53.482;9.862;2024-02-04T02:07:55;3.00;1.25;0.00
23240;PMS7003;11789;53.482;9.862;2024-02-04T02:10:21;8.75;2.00;1.00
23240;PMS7003;11789;53.482;9.862;2024-02-04T02:13:09;3.75;2.75;1.50
23240;PMS7003;11789;53.482;9.862;2024-02-04T02:15:44;2.50;2.00;1.00
23240;PMS7003;11789;53.482;9.862;2024-02-04T02:18:14;3.50;1.50;0.50
23240;PMS7003;11789;53.482;9.862;2024-02-04T02:20:55;7.00;2.00;1.50
23240;PMS7003;11789;53.482;9.862;2024-02-04T02:23:30;2.00;2.00;1.00
23240;PMS7003;11789;53.482;9.862;2024-02-04T02:25:59;2.75;1.00;0.00
23240;PMS7003;11789;53.482;9.862;2024-02-04T02:28:25;0.75;0.00;0.00
23240;PMS7003;11789;53.482;9.862;2024-02-04T02:30:51;1.50;1.50;1.00
23240;PMS7003;11789;53.482;9.862;2024-02-04T02:33:16;5.00;2.00;1.00
23240;PMS7003;11789;53.482;9.862;2024-02-04T02:35:43;3.75;1.00;1.00
23240;PMS7003;11789;53.482;9.862;2024-02-04T02:38:15;3.00;1.50;1.00
23240;PMS7003;11789;53.482;9.862;2024-02-04T02:40:45;5.25;1.00;1.00
23240;PMS7003;11789;53.482;9.862;2024-02-04T02:43:14;5.00;2.00;1.00
23240;PMS7003;11789;53.482;9.862;2024-02-04T02:45:44;2.00;0.00;0.00
23240;PMS7003;11789;53.482;9.862;2024-02-04T02:48:10;2.75;2.25;2.00
23240;PMS7003;11789;53.482;9.862;2024-02-04T02:50:37;2.00;2.00;1.00
23240;PMS7003;11789;53.482;9.862;2024-02-04T02:53:03;1.75;1.75;1.00
23240;PMS7003;11789;53.482;9.862;2024-02-04T02:55:28;3.25;1.00;1.00
23240;PMS7003;11789;53.482;9.862;2024-02-04T02:57:54;4.00;2.75;1.75
23240;PMS7003;11789;53.482;9.862;2024-02-04T03:00:19;1.75;1.00;1.00
23240;PMS7003;11789;53.482;9.862;2024-02-04T03:02:45;3.50;1.00;0.25
23240;PMS7003;11789;53.482;9.862;2024-02-04T03:05:11;4.00;2.50;2.00
23240;PMS7003;11789;53.482;9.862;2024-02-04T03:07:37;5.00;0.00;0.00
23240;PMS7003;11789;53.482;9.862;2024-02-04T03:10:02;1.50;1.50;1.00
23240;PMS7003;11789;53.482;9.862;2024-02-04T03:12:28;4.25;1.50;0.75
23240;PMS7003;11789;53.482;9.862;2024-02-04T03:14:53;3.00;2.00;1.00
23240;PMS7003;11789;53.482;9.862;2024-02-04T03:17:19;4.25;1.00;0.25
23240;PMS7003;11789;53.482;9.862;2024-02-04T03:19:46;3.25;1.75;1.00
23240;PMS7003;11789;53.482;9.862;2024-02-04T03:22:13;0.75;0.75;0.50
23240;PMS7003;11789;53.482;9.862;2024-02-04T03:24:38;2.50;2.00;1.00
23240;PMS7003;11789;53.482;9.862;2024-02-04T03:27:03;2.25;2.00;1.00
23240;PMS7003;11789;53.482;9.862;2024-02-04T03:29:29;1.00;1.00;1.00
23240;PMS7003;11789;53.482;9.862;2024-02-04T03:31:57;2.50;1.00;1.00
23240;PMS7003;11789;53.482;9.862;2024-02-04T03:34:23;1.75;1.75;1.00
23240;PMS7003;11789;53.482;9.862;2024-02-04T03:36:48;1.00;1.00;1.00
23240;PMS7003;11789;53.482;9.862;2024-02-04T03:39:14;2.50;1.50;0.75
23240;PMS7003;11789;53.482;9.862;2024-02-04T03:41:39;3.50;1.00;0.00
23240;PMS7003;11789;53.482;9.862;2024-02-04T03:44:05;1.00;1.00;0.00
23240;PMS7003;11789;53.482;9.862;2024-02-04T03:46:30;1.75;1.00;0.75
23240;PMS7003;11789;53.482;9.862;2024-02-04T03:48:56;6.50;2.00;1.00
23240;PMS7003;11789;53.482;9.862;2024-02-04T03:51:22;2.00;2.00;1.00
23240;PMS7003;11789;53.482;9.862;2024-02-04T03:53:47;1.00;1.00;0.00
23240;PMS7003;11789;53.482;9.862;2024-02-04T03:56:14;3.00;1.75;1.00
23240;PMS7003;11789;53.482;9.862;2024-02-04T03:58:39;3.75;1.75;1.00
23240;PMS7003;11789;53.482;9.862;2024-02-04T04:01:05;4.25;1.75;1.00
23240;PMS7003;11789;53.482;9.862;2024-02-04T04:03:30;2.00;2.00;1.00
23240;PMS7003;11789;53.482;9.862;2024-02-04T04:05:56;2.25;2.00;1.00
23240;PMS7003;11789;53.482;9.862;2024-02-04T04:08:21;4.00;3.00;2.00
23240;PMS7003;11789;53.482;9.862;2024-02-04T04:10:47;3.75;2.00;1.50
23240;PMS7003;11789;53.482;9.862;2024-02-04T04:13:12;2.00;2.00;1.00
23240;PMS7003;11789;53.482;9.862;2024-02-04T04:15:38;4.00;2.25;1.25
23240;PMS7003;11789;53.482;9.862;2024-02-04T04:18:04;5.50;2.00;1.00
23240;PMS7003;11789;53.482;9.862;2024-02-04T04:20:30;4.50;2.00;1.00
23240;PMS7003;11789;53.482;9.862;2024-02-04T04:22:55;6.75;3.75;2.25
23240;PMS7003;11789;53.482;9.862;2024-02-04T04:25:21;3.00;3.00;1.50
23240;PMS7003;11789;53.482;9.862;2024-02-04T04:27:46;5.00;4.00;2.25
23240;PMS7003;11789;53.482;9.862;2024-02-04T04:30:12;3.25;3.00;2.00
23240;PMS7003;11789;53.482;9.862;2024-02-04T04:32:37;6.25;4.00;3.00
23240;PMS7003;11789;53.482;9.862;2024-02-04T04:35:03;3.75;2.25;1.00
23240;PMS7003;11789;53.482;9.862;2024-02-04T04:37:28;3.50;3.50;2.50
23240;PMS7003;11789;53.482;9.862;2024-02-04T04:39:54;5.50;4.75;3.00
23240;PMS7003;11789;53.482;9.862;2024-02-04T04:42:19;4.00;4.00;2.75
23240;PMS7003;11789;53.482;9.862;2024-02-04T04:44:45;5.25;5.25;2.75
23240;PMS7003;11789;53.482;9.862;2024-02-04T04:47:10;3.50;3.50;2.00
23240;PMS7003;11789;53.482;9.862;2024-02-04T04:49:35;6.00;3.25;2.00
23240;PMS7003;11789;53.482;9.862;2024-02-04T04:52:01;5.00;3.50;2.25
23240;PMS7003;11789;53.482;9.862;2024-02-04T04:54:29;8.50;5.25;3.00
23240;PMS7003;11789;53.482;9.862;2024-02-04T04:56:55;6.00;4.25;3.25
23240;PMS7003;11789;53.482;9.862;2024-02-04T04:59:20;5.25;5.25;4.00
23240;PMS7003;11789;53.482;9.862;2024-02-04T05:01:46;4.00;3.75;3.00
23240;PMS7003;11789;53.482;9.862;2024-02-04T05:04:12;4.75;3.50;2.25
23240;PMS7003;11789;53.482;9.862;2024-02-04T05:06:38;7.75;5.75;3.25
23240;PMS7003;11789;53.482;9.862;2024-02-04T05:09:03;9.00;5.25;3.75
23240;PMS7003;11789;53.482;9.862;2024-02-04T05:11:29;5.50;5.00;4.00
23240;PMS7003;11789;53.482;9.862;2024-02-04T05:13:54;6.50;5.75;4.00
23240;PMS7003;11789;53.482;9.862;2024-02-04T05:16:19;8.25;5.50;4.00
23240;PMS7003;11789;53.482;9.862;2024-02-04T05:18:45;7.75;5.25;3.75
23240;PMS7003;11789;53.482;9.862;2024-02-04T05:21:11;11.50;4.50;3.00
23240;PMS7003;11789;53.482;9.862;2024-02-04T05:23:37;5.25;5.00;3.75
23240;PMS7003;11789;53.482;9.862;2024-02-04T05:26:03;5.25;4.00;3.00
23240;PMS7003;11789;53.482;9.862;2024-02-04T05:28:29;8.25;5.50;3.25
23240;PMS7003;11789;53.482;9.862;2024-02-04T05:30:55;5.50;4.00;2.00
23240;PMS7003;11789;53.482;9.862;2024-02-04T05:33:20;5.50;5.25;3.00
23240;PMS7003;11789;53.482;9.862;2024-02-04T05:35:46;6.00;4.50;3.00
23240;PMS7003;11789;53.482;9.862;2024-02-04T05:38:11;4.75;4.50;2.00
23240;PMS7003;11789;53.482;9.862;2024-02-04T05:40:36;4.00;4.00;2.75
23240;PMS7003;11789;53.482;9.862;2024-02-04T05:43:02;7.00;3.50;3.00
23240;PMS7003;11789;53.482;9.862;2024-02-04T05:45:32;2.50;2.50;2.00
23240;PMS7003;11789;53.482;9.862;2024-02-04T05:47:58;4.00;4.00;3.00
23240;PMS7003;11789;53.482;9.862;2024-02-04T05:50:24;3.25;3.25;2.00
23240;PMS7003;11789;53.482;9.862;2024-02-04T05:52:49;15.00;4.50;2.50
23240;PMS7003;11789;53.482;9.862;2024-02-04T05:55:15;8.00;3.00;2.00
23240;PMS7003;11789;53.482;9.862;2024-02-04T05:57:40;5.50;4.00;3.00
23240;PMS7003;11789;53.482;9.862;2024-02-04T06:00:09;4.00;3.00;2.50
23240;PMS7003;11789;53.482;9.862;2024-02-04T06:02:35;4.25;2.75;2.25
23240;PMS7003;11789;53.482;9.862;2024-02-04T06:05:01;7.75;3.00;2.00
23240;PMS7003;11789;53.482;9.862;2024-02-04T06:07:27;7.50;3.50;2.75
23240;PMS7003;11789;53.482;9.862;2024-02-04T06:09:52;3.75;2.50;2.00
23240;PMS7003;11789;53.482;9.862;2024-02-04T06:12:17;4.00;4.00;2.00
23240;PMS7003;11789;53.482;9.862;2024-02-04T06:14:43;4.00;1.00;1.00
23240;PMS7003;11789;53.482;9.862;2024-02-04T06:17:08;3.25;3.25;2.00
23240;PMS7003;11789;53.482;9.862;2024-02-04T06:19:35;3.50;2.50;2.00
23240;PMS7003;11789;53.482;9.862;2024-02-04T06:22:00;2.00;2.00;2.00
23240;PMS7003;11789;53.482;9.862;2024-02-04T06:24:26;2.25;2.25;1.00
23240;PMS7003;11789;53.482;9.862;2024-02-04T06:26:51;1.50;1.50;1.25
23240;PMS7003;11789;53.482;9.862;2024-02-04T06:29:17;2.00;2.00;1.00
23240;PMS7003;11789;53.482;9.862;2024-02-04T06:31:46;4.00;3.00;2.00
23240;PMS7003;11789;53.482;9.862;2024-02-04T06:34:12;2.00;2.00;1.00
23240;PMS7003;11789;53.482;9.862;2024-02-04T06:36:37;2.00;2.00;1.25
23240;PMS7003;11789;53.482;9.862;2024-02-04T06:39:07;4.50;2.00;1.75
23240;PMS7003;11789;53.482;9.862;2024-02-04T06:41:33;3.75;2.25;1.00
23240;PMS7003;11789;53.482;9.862;2024-02-04T06:43:59;4.75;3.25;1.25
23240;PMS7003;11789;53.482;9.862;2024-02-04T06:46:28;2.50;2.00;1.00
23240;PMS7003;11789;53.482;9.862;2024-02-04T06:48:54;3.75;3.50;1.50
23240;PMS7003;11789;53.482;9.862;2024-02-04T06:51:20;3.00;1.00;1.00
23240;PMS7003;11789;53.482;9.862;2024-02-04T06:53:46;2.00;1.50;1.25
23240;PMS7003;11789;53.482;9.862;2024-02-04T06:56:11;3.00;3.00;1.00
23240;PMS7003;11789;53.482;9.862;2024-02-04T06:58:37;1.00;1.00;0.00
23240;PMS7003;11789;53.482;9.862;2024-02-04T07:01:03;1.50;0.00;0.00
23240;PMS7003;11789;53.482;9.862;2024-02-04T07:03:29;1.75;1.75;1.00
23240;PMS7003;11789;53.482;9.862;2024-02-04T07:05:55;3.00;1.50;1.00
23240;PMS7003;11789;53.482;9.862;2024-02-04T07:08:22;5.50;2.00;1.25
23240;PMS7003;11789;53.482;9.862;2024-02-04T07:10:47;4.25;2.75;1.00
23240;PMS7003;11789;53.482;9.862;2024-02-04T07:13:13;4.00;1.00;0.75
23240;PMS7003;11789;53.482;9.862;2024-02-04T07:15:39;1.50;0.75;0.00
23240;PMS7003;11789;53.482;9.862;2024-02-04T07:18:04;5.00;2.00;1.00
23240;PMS7003;11789;53.482;9.862;2024-02-04T07:20:30;1.25;1.00;0.25
23240;PMS7003;11789;53.482;9.862;2024-02-04T07:22:55;4.00;1.00;1.00
23240;PMS7003;11789;53.482;9.862;2024-02-04T07:25:21;7.25;2.25;1.00
23240;PMS7003;11789;53.482;9.862;2024-02-04T07:27:47;2.50;1.00;1.00
23240;PMS7003;11789;53.482;9.862;2024-02-04T07:30:13;2.00;1.00;0.25
23240;PMS7003;11789;53.482;9.862;2024-02-04T07:32:39;3.75;2.00;2.00
23240;PMS7003;11789;53.482;9.862;2024-02-04T07:35:04;4.00;1.00;0.50
23240;PMS7003;11789;53.482;9.862;2024-02-04T07:37:31;1.00;1.00;1.00
23240;PMS7003;11789;53.482;9.862;2024-02-04T07:39:56;5.00;1.00;1.00
23240;PMS7003;11789;53.482;9.862;2024-02-04T07:42:21;3.75;2.00;1.00
23240;PMS7003;11789;53.482;9.862;2024-02-04T07:44:47;2.00;2.00;1.50
23240;PMS7003;11789;53.482;9.862;2024-02-04T07:47:13;2.00;1.00;0.25
23240;PMS7003;11789;53.482;9.862;2024-02-04T07:49:38;3.00;2.00;1.00
23240;PMS7003;11789;53.482;9.862;2024-02-04T07:52:04;6.00;2.50;1.00
23240;PMS7003;11789;53.482;9.862;2024-02-04T07:54:30;1.75;1.00;1.00
23240;PMS7003;11789;53.482;9.862;2024-02-04T07:56:55;3.25;3.25;1.00
23240;PMS7003;11789;53.482;9.862;2024-02-04T07:59:21;3.00;2.00;1.00
23240;PMS7003;11789;53.482;9.862;2024-02-04T08:01:46;2.75;1.75;1.00
23240;PMS7003;11789;53.482;9.862;2024-02-04T08:04:12;3.75;2.00;1.00
23240;PMS7003;11789;53.482;9.862;2024-02-04T08:06:37;2.50;2.50;2.00
23240;PMS7003;11789;53.482;9.862;2024-02-04T08:09:03;2.00;2.00;1.25
23240;PMS7003;11789;53.482;9.862;2024-02-04T08:11:29;2.50;2.50;1.25
23240;PMS7003;11789;53.482;9.862;2024-02-04T08:13:55;4.50;1.75;1.00
23240;PMS7003;11789;53.482;9.862;2024-02-04T08:16:20;4.75;2.00;1.00
23240;PMS7003;11789;53.482;9.862;2024-02-04T08:18:46;2.25;2.25;2.00
23240;PMS7003;11789;53.482;9.862;2024-02-04T08:21:12;3.00;3.00;2.00
23240;PMS7003;11789;53.482;9.862;2024-02-04T08:23:37;2.00;2.00;1.00
23240;PMS7003;11789;53.482;9.862;2024-02-04T08:26:04;5.25;3.75;2.00
23240;PMS7003;11789;53.482;9.862;2024-02-04T08:28:30;4.75;2.25;1.50
23240;PMS7003;11789;53.482;9.862;2024-02-04T08:30:56;6.25;3.00;1.75
23240;PMS7003;11789;53.482;9.862;2024-02-04T08:33:21;4.00;4.00;2.75
23240;PMS7003;11789;53.482;9.862;2024-02-04T08:35:47;4.75;4.75;2.75
23240;PMS7003;11789;53.482;9.862;2024-02-04T08:38:13;5.50;3.00;2.00
23240;PMS7003;11789;53.482;9.862;2024-02-04T08:40:39;4.75;3.00;3.00
23240;PMS7003;11789;53.482;9.862;2024-02-04T08:43:04;3.50;3.50;2.00
23240;PMS7003;11789;53.482;9.862;2024-02-04T08:45:30;5.75;3.75;2.50
23240;PMS7003;11789;53.482;9.862;2024-02-04T08:47:55;5.25;5.25;4.00
23240;PMS7003;11789;53.482;9.862;2024-02-04T08:50:21;4.50;3.75;3.00
23240;PMS7003;11789;53.482;9.862;2024-02-04T08:52:46;8.50;5.25;3.50
23240;PMS7003;11789;53.482;9.862;2024-02-04T08:55:12;5.25;4.75;3.00
23240;PMS7003;11789;53.482;9.862;2024-02-04T08:57:37;7.50;5.25;3.00
23240;PMS7003;11789;53.482;9.862;2024-02-04T09:00:03;4.75;4.75;3.50
23240;PMS7003;11789;53.482;9.862;2024-02-04T09:02:29;10.00;5.00;3.00
23240;PMS7003;11789;53.482;9.862;2024-02-04T09:04:54;5.00;5.00;4.00
23240;PMS7003;11789;53.482;9.862;2024-02-04T09:07:20;7.25;6.00;4.25
23240;PMS7003;11789;53.482;9.862;2024-02-04T09:09:45;7.00;6.25;4.00
23240;PMS7003;11789;53.482;9.862;2024-02-04T09:12:11;4.75;4.75;4.00
23240;PMS7003;11789;53.482;9.862;2024-02-04T09:14:36;6.25;6.25;4.00
23240;PMS7003;11789;53.482;9.862;2024-02-04T09:17:02;8.25;6.50;5.00
23240;PMS7003;11789;53.482;9.862;2024-02-04T09:19:29;7.00;5.25;4.00
23240;PMS7003;11789;53.482;9.862;2024-02-04T09:21:56;7.25;7.25;4.00
23240;PMS7003;11789;53.482;9.862;2024-02-04T09:24:22;5.50;5.00;3.25
23240;PMS7003;11789;53.482;9.862;2024-02-04T09:26:47;7.00;5.50;5.00
23240;PMS7003;11789;53.482;9.862;2024-02-04T09:29:12;6.25;4.75;3.50
23240;PMS7003;11789;53.482;9.862;2024-02-04T09:31:38;9.25;5.50;4.00
23240;PMS7003;11789;53.482;9.862;2024-02-04T09:34:04;7.00;7.00;5.00
23240;PMS7003;11789;53.482;9.862;2024-02-04T09:36:29;6.00;4.25;3.00
23240;PMS7003;11789;53.482;9.862;2024-02-04T09:38:55;10.00;6.00;4.00
23240;PMS7003;11789;53.482;9.862;2024-02-04T09:41:21;5.50;5.00;4.00
23240;PMS7003;11789;53.482;9.862;2024-02-04T09:43:48;5.00;5.00;4.00
23240;PMS7003;11789;53.482;9.862;2024-02-04T09:46:16;4.00;4.00;3.00
23240;PMS7003;11789;53.482;9.862;2024-02-04T09:48:42;6.00;6.00;3.50
23240;PMS7003;11789;53.482;9.862;2024-02-04T09:51:09;4.00;4.00;2.75
23240;PMS7003;11789;53.482;9.862;2024-02-04T09:53:35;5.00;5.00;3.00
23240;PMS7003;11789;53.482;9.862;2024-02-04T09:56:06;5.00;3.50;2.50
23240;PMS7003;11789;53.482;9.862;2024-02-04T09:58:34;5.00;4.75;3.00
23240;PMS7003;11789;53.482;9.862;2024-02-04T10:01:00;8.25;5.00;3.00
23240;PMS7003;11789;53.482;9.862;2024-02-04T10:03:25;7.00;5.00;3.25
23240;PMS7003;11789;53.482;9.862;2024-02-04T10:05:51;7.00;4.00;2.25
23240;PMS7003;11789;53.482;9.862;2024-02-04T10:08:17;7.00;4.75;3.00
23240;PMS7003;11789;53.482;9.862;2024-02-04T10:10:43;7.00;3.00;2.25
23240;PMS7003;11789;53.482;9.862;2024-02-04T10:13:09;4.75;3.50;2.50
23240;PMS7003;11789;53.482;9.862;2024-02-04T10:15:34;3.75;3.75;3.00
23240;PMS7003;11789;53.482;9.862;2024-02-04T10:18:04;7.00;5.00;3.00
23240;PMS7003;11789;53.482;9.862;2024-02-04T10:20:30;5.50;4.25;3.00
23240;PMS7003;11789;53.482;9.862;2024-02-04T10:22:56;9.25;4.50;3.00
23240;PMS7003;11789;53.482;9.862;2024-02-04T10:25:22;5.00;5.00;2.75
23240;PMS7003;11789;53.482;9.862;2024-02-04T10:27:47;5.25;3.00;2.50
23240;PMS7003;11789;53.482;9.862;2024-02-04T10:30:14;5.75;3.25;3.00
23240;PMS7003;11789;53.482;9.862;2024-02-04T10:32:41;6.75;4.00;3.00
23240;PMS7003;11789;53.482;9.862;2024-02-04T10:35:07;3.25;3.00;2.75
23240;PMS7003;11789;53.482;9.862;2024-02-04T10:37:33;6.75;6.75;4.00
23240;PMS7003;11789;53.482;9.862;2024-02-04T10:39:59;8.50;4.25;3.00
23240;PMS7003;11789;53.482;9.862;2024-02-04T10:42:26;9.00;4.00;3.00
23240;PMS7003;11789;53.482;9.862;2024-02-04T10:44:55;7.25;3.25;2.00
23240;PMS7003;11789;53.482;9.862;2024-02-04T10:47:30;6.50;5.50;2.75
23240;PMS7003;11789;53.482;9.862;2024-02-04T10:49:58;5.75;3.00;2.00
23240;PMS7003;11789;53.482;9.862;2024-02-04T10:52:26;8.75;4.00;2.25
23240;PMS7003;11789;53.482;9.862;2024-02-04T10:54:52;5.00;4.25;2.00
23240;PMS7003;11789;53.482;9.862;2024-02-04T10:57:22;7.50;4.00;2.00
23240;PMS7003;11789;53.482;9.862;2024-02-04T10:59:55;4.50;4.50;2.25
23240;PMS7003;11789;53.482;9.862;2024-02-04T11:02:23;5.50;4.50;3.00
23240;PMS7003;11789;53.482;9.862;2024-02-04T11:04:49;6.50;5.50;3.50
23240;PMS7003;11789;53.482;9.862;2024-02-04T11:07:15;6.50;4.00;3.00
23240;PMS7003;11789;53.482;9.862;2024-02-04T11:09:44;5.00;5.00;3.00
23240;PMS7003;11789;53.482;9.862;2024-02-04T11:12:13;7.50;4.50;3.00
23240;PMS7003;11789;53.482;9.862;2024-02-04T11:14:41;8.00;5.00;3.25
23240;PMS7003;11789;53.482;9.862;2024-02-04T11:17:27;11.50;4.75;3.00
23240;PMS7003;11789;53.482;9.862;2024-02-04T11:27:55;10.50;4.50;3.00
23240;PMS7003;11789;53.482;9.862;2024-02-04T11:30:22;5.75;3.25;3.00
23240;PMS7003;11789;53.482;9.862;2024-02-04T11:32:48;7.00;4.00;3.00
23240;PMS7003;11789;53.482;9.862;2024-02-04T11:35:14;5.50;5.25;4.00
23240;PMS7003;11789;53.482;9.862;2024-02-04T11:37:40;12.75;6.00;4.00
23240;PMS7003;11789;53.482;9.862;2024-02-04T11:40:07;5.25;4.00;3.00
23240;PMS7003;11789;53.482;9.862;2024-02-04T11:42:33;9.50;4.75;4.00
23240;PMS7003;11789;53.482;9.862;2024-02-04T11:45:11;5.75;5.00;3.75
23240;PMS7003;11789;53.482;9.862;2024-02-04T11:47:39;7.00;4.00;3.00
23240;PMS7003;11789;53.482;9.862;2024-02-04T11:50:05;7.50;4.00;2.00
23240;PMS7003;11789;53.482;9.862;2024-02-04T11:52:31;5.50;3.75;2.00
23240;PMS7003;11789;53.482;9.862;2024-02-04T11:54:57;4.00;3.00;2.00
23240;PMS7003;11789;53.482;9.862;2024-02-04T11:57:24;5.75;4.00;3.00
23240;PMS7003;11789;53.482;9.862;2024-02-04T11:59:51;4.00;4.00;3.25
23240;PMS7003;11789;53.482;9.862;2024-02-04T12:02:19;6.00;4.00;2.25
23240;PMS7003;11789;53.482;9.862;2024-02-04T12:04:45;5.75;3.00;2.25
23240;PMS7003;11789;53.482;9.862;2024-02-04T12:07:11;7.00;4.00;2.00
23240;PMS7003;11789;53.482;9.862;2024-02-04T12:09:38;6.75;2.75;2.25
23240;PMS7003;11789;53.482;9.862;2024-02-04T12:12:04;5.75;3.75;3.00
23240;PMS7003;11789;53.482;9.862;2024-02-04T12:14:30;6.00;3.50;3.00
23240;PMS7003;11789;53.482;9.862;2024-02-04T12:16:56;3.50;3.50;2.00
23240;PMS7003;11789;53.482;9.862;2024-02-04T12:19:22;3.50;3.00;2.00
23240;PMS7003;11789;53.482;9.862;2024-02-04T12:21:48;7.25;4.75;2.00
23240;PMS7003;11789;53.482;9.862;2024-02-04T12:24:14;6.25;3.00;2.00
23240;PMS7003;11789;53.482;9.862;2024-02-04T12:26:40;6.75;4.25;3.00
23240;PMS7003;11789;53.482;9.862;2024-02-04T12:29:06;7.00;2.75;2.00
23240;PMS7003;11789;53.482;9.862;2024-02-04T12:31:31;4.25;3.00;2.50
23240;PMS7003;11789;53.482;9.862;2024-02-04T12:34:01;5.25;2.75;2.00
23240;PMS7003;11789;53.482;9.862;2024-02-04T12:36:30;6.50;2.25;2.00
23240;PMS7003;11789;53.482;9.862;2024-02-04T12:39:00;7.00;4.50;2.00
23240;PMS7003;11789;53.482;9.862;2024-02-04T12:41:26;5.50;3.00;2.00
23240;PMS7003;11789;53.482;9.862;2024-02-04T12:43:56;5.25;3.00;2.00
23240;PMS7003;11789;53.482;9.862;2024-02-04T12:46:23;5.00;4.00;2.00
23240;PMS7003;11789;53.482;9.862;2024-02-04T12:48:52;9.25;3.00;2.25
23240;PMS7003;11789;53.482;9.862;2024-02-04T12:54:04;5.50;3.25;2.25
23240;PMS7003;11789;53.482;9.862;2024-02-04T12:59:06;4.75;1.25;1.00
23240;PMS7003;11789;53.482;9.862;2024-02-04T13:01:32;5.00;5.00;3.00
23240;PMS7003;11789;53.482;9.862;2024-02-04T13:03:57;6.75;5.00;3.50
23240;PMS7003;11789;53.482;9.862;2024-02-04T13:06:22;6.00;4.00;3.00
23240;PMS7003;11789;53.482;9.862;2024-02-04T13:08:48;5.50;3.50;2.50
23240;PMS7003;11789;53.482;9.862;2024-02-04T13:11:19;6.00;3.00;2.50
23240;PMS7003;11789;53.482;9.862;2024-02-04T13:13:45;5.00;3.25;2.50
23240;PMS7003;11789;53.482;9.862;2024-02-04T13:16:10;8.25;4.00;3.75
23240;PMS7003;11789;53.482;9.862;2024-02-04T13:18:36;3.00;3.00;2.75
23240;PMS7003;11789;53.482;9.862;2024-02-04T13:21:01;4.50;4.50;3.00
23240;PMS7003;11789;53.482;9.862;2024-02-04T13:23:27;5.25;4.00;2.50
23240;PMS7003;11789;53.482;9.862;2024-02-04T13:25:53;7.50;4.75;3.00
23240;PMS7003;11789;53.482;9.862;2024-02-04T13:28:18;3.00;3.00;2.25
23240;PMS7003;11789;53.482;9.862;2024-02-04T13:30:44;3.75;3.75;3.00
23240;PMS7003;11789;53.482;9.862;2024-02-04T13:33:10;5.00;5.00;3.00
23240;PMS7003;11789;53.482;9.862;2024-02-04T13:35:35;5.25;2.25;2.00
23240;PMS7003;11789;53.482;9.862;2024-02-04T13:38:01;4.75;3.00;2.00
23240;PMS7003;11789;53.482;9.862;2024-02-04T13:40:27;2.25;2.00;1.75
23240;PMS7003;11789;53.482;9.862;2024-02-04T13:42:52;7.50;4.00;3.00
23240;PMS7003;11789;53.482;9.862;2024-02-04T13:45:18;4.75;4.75;3.00
23240;PMS7003;11789;53.482;9.862;2024-02-04T13:47:44;9.50;3.00;3.00
23240;PMS7003;11789;53.482;9.862;2024-02-04T13:50:10;4.00;3.00;2.00
23240;PMS7003;11789;53.482;9.862;2024-02-04T13:52:36;2.25;2.25;2.00
23240;PMS7003;11789;53.482;9.862;2024-02-04T13:55:03;7.50;3.75;2.50
23240;PMS7003;11789;53.482;9.862;2024-02-04T13:57:35;6.00;3.25;3.00
23240;PMS7003;11789;53.482;9.862;2024-02-04T14:00:01;5.50;2.25;1.75
23240;PMS7003;11789;53.482;9.862;2024-02-04T14:02:28;4.00;3.00;2.00
23240;PMS7003;11789;53.482;9.862;2024-02-04T14:04:55;3.50;3.25;3.00
23240;PMS7003;11789;53.482;9.862;2024-02-04T14:07:21;3.00;3.00;1.00
23240;PMS7003;11789;53.482;9.862;2024-02-04T14:09:46;9.00;3.75;2.00
23240;PMS7003;11789;53.482;9.862;2024-02-04T14:12:11;4.00;2.75;2.00
23240;PMS7003;11789;53.482;9.862;2024-02-04T14:14:38;5.00;2.00;1.00
23240;PMS7003;11789;53.482;9.862;2024-02-04T14:17:04;4.50;2.00;2.00
23240;PMS7003;11789;53.482;9.862;2024-02-04T14:19:30;3.25;3.00;2.00
23240;PMS7003;11789;53.482;9.862;2024-02-04T14:21:55;5.25;2.25;2.00
23240;PMS7003;11789;53.482;9.862;2024-02-04T14:24:21;6.00;2.25;2.00
23240;PMS7003;11789;53.482;9.862;2024-02-04T14:26:46;3.50;3.50;2.75
23240;PMS7003;11789;53.482;9.862;2024-02-04T14:29:12;3.00;1.25;1.00